sensor_id;sensor_type;location;lat;lon;timestamp;P1;durP1;ratioP1;P2;durP2;ratioP2
22648;SDS011;11491;41.942;24.220;2023-12-28T00:01:42;21.20;;;10.35;;
22648;SDS011;11491;41.942;24.220;2023-12-28T00:04:11;19.63;;;9.88;;
22648;SDS011;11491;41.942;24.220;2023-12-28T00:06:37;20.60;;;8.52;;
22648;SDS011;11491;41.942;24.220;2023-12-28T00:09:04;18.40;;;8.63;;
22648;SDS011;11491;41.942;24.220;2023-12-28T00:11:31;11.48;;;5.60;;
22648;SDS011;11491;41.942;24.220;2023-12-28T00:13:58;12.32;;;5.78;;
22648;SDS011;11491;41.942;24.220;2023-12-28T00:16:24;14.88;;;6.40;;
22648;SDS011;11491;41.942;24.220;2023-12-28T00:18:51;6.75;;;3.63;;
22648;SDS011;11491;41.942;24.220;2023-12-28T00:21:19;12.30;;;5.68;;
22648;SDS011;11491;41.942;24.220;2023-12-28T00:23:46;12.82;;;6.13;;
22648;SDS011;11491;41.942;24.220;2023-12-28T00:26:13;17.15;;;8.98;;
22648;SDS011;11491;41.942;24.220;2023-12-28T00:28:39;17.73;;;8.63;;
22648;SDS011;11491;41.942;24.220;2023-12-28T00:31:06;12.48;;;6.78;;
22648;SDS011;11491;41.942;24.220;2023-12-28T00:33:33;10.10;;;5.63;;
22648;SDS011;11491;41.942;24.220;2023-12-28T00:35:59;7.30;;;4.03;;
22648;SDS011;11491;41.942;24.220;2023-12-28T00:38:28;6.63;;;3.20;;
22648;SDS011;11491;41.942;24.220;2023-12-28T00:40:54;5.50;;;2.92;;
22648;SDS011;11491;41.942;24.220;2023-12-28T00:43:21;5.30;;;2.30;;
22648;SDS011;11491;41.942;24.220;2023-12-28T00:45:48;3.90;;;2.35;;
22648;SDS011;11491;41.942;24.220;2023-12-28T00:48:14;5.82;;;3.33;;
22648;SDS011;11491;41.942;24.220;2023-12-28T00:50:41;6.38;;;2.97;;
22648;SDS011;11491;41.942;24.220;2023-12-28T00:53:08;3.85;;;2.20;;
22648;SDS011;11491;41.942;24.220;2023-12-28T00:55:36;5.32;;;2.92;;
22648;SDS011;11491;41.942;24.220;2023-12-28T00:58:03;6.68;;;3.78;;
22648;SDS011;11491;41.942;24.220;2023-12-28T01:00:29;7.18;;;3.47;;
22648;SDS011;11491;41.942;24.220;2023-12-28T01:02:56;6.20;;;3.45;;
22648;SDS011;11491;41.942;24.220;2023-12-28T01:05:23;5.03;;;3.03;;
22648;SDS011;11491;41.942;24.220;2023-12-28T01:07:51;4.95;;;2.92;;
22648;SDS011;11491;41.942;24.220;2023-12-28T01:10:18;4.32;;;2.40;;
22648;SDS011;11491;41.942;24.220;2023-12-28T01:12:46;3.90;;;2.03;;
22648;SDS011;11491;41.942;24.220;2023-12-28T01:15:13;5.22;;;2.40;;
22648;SDS011;11491;41.942;24.220;2023-12-28T01:17:40;4.95;;;2.22;;
22648;SDS011;11491;41.942;24.220;2023-12-28T01:20:07;6.55;;;3.05;;
22648;SDS011;11491;41.942;24.220;2023-12-28T01:22:34;9.57;;;4.65;;
22648;SDS011;11491;41.942;24.220;2023-12-28T01:25:01;7.65;;;4.43;;
22648;SDS011;11491;41.942;24.220;2023-12-28T01:27:28;8.13;;;4.40;;
22648;SDS011;11491;41.942;24.220;2023-12-28T01:29:56;12.70;;;4.95;;
22648;SDS011;11491;41.942;24.220;2023-12-28T01:32:23;5.35;;;3.00;;
22648;SDS011;11491;41.942;24.220;2023-12-28T01:34:50;7.10;;;3.72;;
22648;SDS011;11491;41.942;24.220;2023-12-28T01:37:16;7.25;;;3.63;;
22648;SDS011;11491;41.942;24.220;2023-12-28T01:39:43;7.35;;;4.00;;
22648;SDS011;11491;41.942;24.220;2023-12-28T01:42:10;6.38;;;3.88;;
22648;SDS011;11491;41.942;24.220;2023-12-28T01:44:36;5.88;;;3.40;;
22648;SDS011;11491;41.942;24.220;2023-12-28T01:47:05;7.65;;;4.30;;
22648;SDS011;11491;41.942;24.220;2023-12-28T01:49:32;13.63;;;6.35;;
22648;SDS011;11491;41.942;24.220;2023-12-28T01:52:00;10.35;;;4.90;;
22648;SDS011;11491;41.942;24.220;2023-12-28T01:54:27;8.95;;;5.45;;
22648;SDS011;11491;41.942;24.220;2023-12-28T01:56:55;9.80;;;5.15;;
22648;SDS011;11491;41.942;24.220;2023-12-28T01:59:22;8.80;;;3.72;;
22648;SDS011;11491;41.942;24.220;2023-12-28T02:01:49;6.15;;;3.08;;
22648;SDS011;11491;41.942;24.220;2023-12-28T02:04:17;6.70;;;3.17;;
22648;SDS011;11491;41.942;24.220;2023-12-28T02:06:51;6.07;;;3.25;;
22648;SDS011;11491;41.942;24.220;2023-12-28T02:09:19;5.10;;;3.60;;
22648;SDS011;11491;41.942;24.220;2023-12-28T02:11:45;6.18;;;3.80;;
22648;SDS011;11491;41.942;24.220;2023-12-28T02:14:12;5.53;;;3.00;;
22648;SDS011;11491;41.942;24.220;2023-12-28T02:16:40;6.13;;;3.53;;
22648;SDS011;11491;41.942;24.220;2023-12-28T02:19:14;6.80;;;3.92;;
22648;SDS011;11491;41.942;24.220;2023-12-28T02:21:51;9.95;;;5.78;;
22648;SDS011;11491;41.942;24.220;2023-12-28T02:24:19;8.27;;;5.45;;
22648;SDS011;11491;41.942;24.220;2023-12-28T02:26:47;9.13;;;5.07;;
22648;SDS011;11491;41.942;24.220;2023-12-28T02:29:14;6.10;;;3.50;;
22648;SDS011;11491;41.942;24.220;2023-12-28T02:31:44;7.40;;;2.85;;
22648;SDS011;11491;41.942;24.220;2023-12-28T02:34:19;6.13;;;3.47;;
22648;SDS011;11491;41.942;24.220;2023-12-28T02:36:52;5.13;;;2.78;;
22648;SDS011;11491;41.942;24.220;2023-12-28T02:39:22;6.88;;;3.05;;
22648;SDS011;11491;41.942;24.220;2023-12-28T02:41:52;5.30;;;3.17;;
22648;SDS011;11491;41.942;24.220;2023-12-28T02:44:20;11.02;;;6.07;;
22648;SDS011;11491;41.942;24.220;2023-12-28T02:46:47;8.85;;;3.38;;
22648;SDS011;11491;41.942;24.220;2023-12-28T02:49:14;8.18;;;3.17;;
22648;SDS011;11491;41.942;24.220;2023-12-28T02:51:41;8.15;;;3.97;;
22648;SDS011;11491;41.942;24.220;2023-12-28T02:54:08;9.32;;;3.95;;
22648;SDS011;11491;41.942;24.220;2023-12-28T02:56:35;11.18;;;5.97;;
22648;SDS011;11491;41.942;24.220;2023-12-28T02:59:03;9.43;;;5.07;;
22648;SDS011;11491;41.942;24.220;2023-12-28T03:01:29;9.70;;;4.80;;
22648;SDS011;11491;41.942;24.220;2023-12-28T03:03:56;5.43;;;3.70;;
22648;SDS011;11491;41.942;24.220;2023-12-28T03:06:23;6.13;;;3.45;;
22648;SDS011;11491;41.942;24.220;2023-12-28T03:08:49;5.68;;;3.40;;
22648;SDS011;11491;41.942;24.220;2023-12-28T03:11:16;5.72;;;3.17;;
22648;SDS011;11491;41.942;24.220;2023-12-28T03:13:45;8.15;;;4.80;;
22648;SDS011;11491;41.942;24.220;2023-12-28T03:16:14;10.48;;;5.60;;
22648;SDS011;11491;41.942;24.220;2023-12-28T03:18:40;7.65;;;4.25;;
22648;SDS011;11491;41.942;24.220;2023-12-28T03:21:07;7.38;;;3.38;;
22648;SDS011;11491;41.942;24.220;2023-12-28T03:23:34;6.90;;;3.90;;
22648;SDS011;11491;41.942;24.220;2023-12-28T03:26:01;8.93;;;4.47;;
22648;SDS011;11491;41.942;24.220;2023-12-28T03:28:27;6.97;;;4.45;;
22648;SDS011;11491;41.942;24.220;2023-12-28T03:30:54;7.90;;;4.85;;
22648;SDS011;11491;41.942;24.220;2023-12-28T03:33:23;4.88;;;2.90;;
22648;SDS011;11491;41.942;24.220;2023-12-28T03:35:50;2.65;;;2.08;;
22648;SDS011;11491;41.942;24.220;2023-12-28T03:38:17;2.78;;;1.80;;
22648;SDS011;11491;41.942;24.220;2023-12-28T03:40:44;3.33;;;2.00;;
22648;SDS011;11491;41.942;24.220;2023-12-28T03:43:13;6.47;;;4.45;;
22648;SDS011;11491;41.942;24.220;2023-12-28T03:45:40;4.03;;;2.20;;
22648;SDS011;11491;41.942;24.220;2023-12-28T03:48:06;7.30;;;3.75;;
22648;SDS011;11491;41.942;24.220;2023-12-28T03:50:35;7.85;;;4.72;;
22648;SDS011;11491;41.942;24.220;2023-12-28T03:53:02;10.05;;;5.95;;
22648;SDS011;11491;41.942;24.220;2023-12-28T03:55:29;17.23;;;8.68;;
22648;SDS011;11491;41.942;24.220;2023-12-28T03:57:55;8.80;;;6.18;;
22648;SDS011;11491;41.942;24.220;2023-12-28T04:00:23;10.93;;;6.65;;
22648;SDS011;11491;41.942;24.220;2023-12-28T04:02:50;11.20;;;7.68;;
22648;SDS011;11491;41.942;24.220;2023-12-28T04:05:17;11.65;;;6.78;;
22648;SDS011;11491;41.942;24.220;2023-12-28T04:07:45;7.88;;;5.20;;
22648;SDS011;11491;41.942;24.220;2023-12-28T04:10:11;6.13;;;3.83;;
22648;SDS011;11491;41.942;24.220;2023-12-28T04:12:38;5.75;;;3.00;;
22648;SDS011;11491;41.942;24.220;2023-12-28T04:15:05;7.22;;;4.65;;
22648;SDS011;11491;41.942;24.220;2023-12-28T04:17:32;10.75;;;6.38;;
22648;SDS011;11491;41.942;24.220;2023-12-28T04:19:59;12.73;;;7.93;;
22648;SDS011;11491;41.942;24.220;2023-12-28T04:22:26;8.38;;;5.70;;
22648;SDS011;11491;41.942;24.220;2023-12-28T04:24:54;10.00;;;5.45;;
22648;SDS011;11491;41.942;24.220;2023-12-28T04:27:20;14.07;;;9.68;;
22648;SDS011;11491;41.942;24.220;2023-12-28T04:29:47;8.27;;;5.45;;
22648;SDS011;11491;41.942;24.220;2023-12-28T04:32:14;10.50;;;6.47;;
22648;SDS011;11491;41.942;24.220;2023-12-28T04:34:40;7.35;;;5.03;;
22648;SDS011;11491;41.942;24.220;2023-12-28T04:37:07;6.65;;;4.82;;
22648;SDS011;11491;41.942;24.220;2023-12-28T04:39:34;7.90;;;5.75;;
22648;SDS011;11491;41.942;24.220;2023-12-28T04:42:02;13.40;;;7.18;;
22648;SDS011;11491;41.942;24.220;2023-12-28T04:44:29;11.65;;;7.05;;
22648;SDS011;11491;41.942;24.220;2023-12-28T04:46:56;28.27;;;14.15;;
22648;SDS011;11491;41.942;24.220;2023-12-28T04:49:23;16.08;;;8.18;;
22648;SDS011;11491;41.942;24.220;2023-12-28T04:51:50;16.83;;;8.73;;
22648;SDS011;11491;41.942;24.220;2023-12-28T04:54:16;18.33;;;8.98;;
22648;SDS011;11491;41.942;24.220;2023-12-28T04:56:43;16.63;;;9.15;;
22648;SDS011;11491;41.942;24.220;2023-12-28T04:59:11;18.67;;;11.00;;
22648;SDS011;11491;41.942;24.220;2023-12-28T05:01:41;27.35;;;14.18;;
22648;SDS011;11491;41.942;24.220;2023-12-28T05:04:08;41.13;;;25.05;;
22648;SDS011;11491;41.942;24.220;2023-12-28T05:06:35;50.47;;;30.88;;
22648;SDS011;11491;41.942;24.220;2023-12-28T05:09:02;48.22;;;24.60;;
22648;SDS011;11491;41.942;24.220;2023-12-28T05:11:29;44.95;;;24.38;;
22648;SDS011;11491;41.942;24.220;2023-12-28T05:13:56;50.75;;;29.48;;
22648;SDS011;11491;41.942;24.220;2023-12-28T05:16:24;51.80;;;31.30;;
22648;SDS011;11491;41.942;24.220;2023-12-28T05:18:51;44.92;;;27.75;;
22648;SDS011;11491;41.942;24.220;2023-12-28T05:21:17;115.10;;;65.95;;
22648;SDS011;11491;41.942;24.220;2023-12-28T05:23:45;49.47;;;31.23;;
22648;SDS011;11491;41.942;24.220;2023-12-28T05:26:12;46.53;;;27.15;;
22648;SDS011;11491;41.942;24.220;2023-12-28T05:28:39;37.38;;;25.05;;
22648;SDS011;11491;41.942;24.220;2023-12-28T05:31:05;35.05;;;21.73;;
22648;SDS011;11491;41.942;24.220;2023-12-28T05:33:33;61.67;;;31.27;;
22648;SDS011;11491;41.942;24.220;2023-12-28T05:36:00;54.22;;;30.63;;
22648;SDS011;11491;41.942;24.220;2023-12-28T05:38:27;45.55;;;25.60;;
22648;SDS011;11491;41.942;24.220;2023-12-28T05:40:54;41.70;;;25.17;;
22648;SDS011;11491;41.942;24.220;2023-12-28T05:43:20;54.03;;;30.95;;
22648;SDS011;11491;41.942;24.220;2023-12-28T05:45:47;54.03;;;32.22;;
22648;SDS011;11491;41.942;24.220;2023-12-28T05:48:14;63.67;;;37.60;;
22648;SDS011;11491;41.942;24.220;2023-12-28T05:50:42;54.85;;;33.95;;
22648;SDS011;11491;41.942;24.220;2023-12-28T05:53:09;45.20;;;28.65;;
22648;SDS011;11491;41.942;24.220;2023-12-28T05:55:39;46.58;;;24.45;;
22648;SDS011;11491;41.942;24.220;2023-12-28T05:58:05;37.35;;;24.20;;
22648;SDS011;11491;41.942;24.220;2023-12-28T06:00:32;41.67;;;25.63;;
22648;SDS011;11491;41.942;24.220;2023-12-28T06:03:00;51.50;;;31.52;;
22648;SDS011;11491;41.942;24.220;2023-12-28T06:05:27;55.13;;;31.45;;
22648;SDS011;11491;41.942;24.220;2023-12-28T06:07:55;73.82;;;45.55;;
22648;SDS011;11491;41.942;24.220;2023-12-28T06:10:22;77.20;;;48.90;;
22648;SDS011;11491;41.942;24.220;2023-12-28T06:12:50;75.18;;;48.47;;
22648;SDS011;11491;41.942;24.220;2023-12-28T06:15:16;88.13;;;55.40;;
22648;SDS011;11491;41.942;24.220;2023-12-28T06:17:43;89.93;;;57.92;;
22648;SDS011;11491;41.942;24.220;2023-12-28T06:20:10;143.02;;;87.93;;
22648;SDS011;11491;41.942;24.220;2023-12-28T06:22:37;135.43;;;84.75;;
22648;SDS011;11491;41.942;24.220;2023-12-28T06:25:05;156.32;;;98.07;;
22648;SDS011;11491;41.942;24.220;2023-12-28T06:27:33;166.70;;;102.75;;
22648;SDS011;11491;41.942;24.220;2023-12-28T06:29:59;145.13;;;87.82;;
22648;SDS011;11491;41.942;24.220;2023-12-28T06:32:26;102.60;;;63.53;;
22648;SDS011;11491;41.942;24.220;2023-12-28T06:34:53;124.13;;;77.80;;
22648;SDS011;11491;41.942;24.220;2023-12-28T06:37:20;139.02;;;85.90;;
22648;SDS011;11491;41.942;24.220;2023-12-28T06:39:47;143.57;;;89.25;;
22648;SDS011;11491;41.942;24.220;2023-12-28T06:42:15;153.52;;;91.03;;
22648;SDS011;11491;41.942;24.220;2023-12-28T06:44:42;107.93;;;67.28;;
22648;SDS011;11491;41.942;24.220;2023-12-28T06:47:09;115.22;;;71.50;;
22648;SDS011;11491;41.942;24.220;2023-12-28T06:49:35;162.27;;;99.38;;
22648;SDS011;11491;41.942;24.220;2023-12-28T06:52:02;77.47;;;48.30;;
22648;SDS011;11491;41.942;24.220;2023-12-28T06:54:29;81.32;;;52.78;;
22648;SDS011;11491;41.942;24.220;2023-12-28T06:56:56;72.93;;;43.85;;
22648;SDS011;11491;41.942;24.220;2023-12-28T06:59:24;73.97;;;48.75;;
22648;SDS011;11491;41.942;24.220;2023-12-28T07:01:53;54.08;;;33.88;;
22648;SDS011;11491;41.942;24.220;2023-12-28T07:04:20;51.35;;;32.28;;
22648;SDS011;11491;41.942;24.220;2023-12-28T07:06:47;94.70;;;48.05;;
22648;SDS011;11491;41.942;24.220;2023-12-28T07:09:14;84.45;;;41.95;;
22648;SDS011;11491;41.942;24.220;2023-12-28T07:11:41;54.95;;;29.98;;
22648;SDS011;11491;41.942;24.220;2023-12-28T07:14:07;45.20;;;27.65;;
22648;SDS011;11491;41.942;24.220;2023-12-28T07:16:36;54.10;;;34.45;;
22648;SDS011;11491;41.942;24.220;2023-12-28T07:19:02;52.28;;;33.30;;
22648;SDS011;11491;41.942;24.220;2023-12-28T07:21:29;28.00;;;18.45;;
22648;SDS011;11491;41.942;24.220;2023-12-28T07:23:56;27.90;;;18.83;;
22648;SDS011;11491;41.942;24.220;2023-12-28T07:26:23;32.08;;;23.05;;
22648;SDS011;11491;41.942;24.220;2023-12-28T07:28:50;51.53;;;32.55;;
22648;SDS011;11491;41.942;24.220;2023-12-28T07:31:23;109.45;;;59.13;;
22648;SDS011;11491;41.942;24.220;2023-12-28T07:36:18;18.35;;;11.30;;
22648;SDS011;11491;41.942;24.220;2023-12-28T07:38:45;21.40;;;13.38;;
22648;SDS011;11491;41.942;24.220;2023-12-28T07:41:12;16.65;;;10.27;;
22648;SDS011;11491;41.942;24.220;2023-12-28T07:43:38;12.48;;;8.15;;
22648;SDS011;11491;41.942;24.220;2023-12-28T07:46:05;5.25;;;3.33;;
22648;SDS011;11491;41.942;24.220;2023-12-28T07:48:32;5.75;;;4.15;;
22648;SDS011;11491;41.942;24.220;2023-12-28T07:51:03;4.38;;;2.53;;
22648;SDS011;11491;41.942;24.220;2023-12-28T07:53:30;10.40;;;4.10;;
22648;SDS011;11491;41.942;24.220;2023-12-28T07:55:57;60.72;;;5.97;;
22648;SDS011;11491;41.942;24.220;2023-12-28T07:58:24;15.02;;;9.10;;
22648;SDS011;11491;41.942;24.220;2023-12-28T08:00:50;11.90;;;7.38;;
22648;SDS011;11491;41.942;24.220;2023-12-28T08:03:18;17.75;;;10.77;;
22648;SDS011;11491;41.942;24.220;2023-12-28T08:05:44;18.42;;;12.60;;
22648;SDS011;11491;41.942;24.220;2023-12-28T08:08:12;13.40;;;9.07;;
22648;SDS011;11491;41.942;24.220;2023-12-28T08:10:39;18.40;;;10.43;;
22648;SDS011;11491;41.942;24.220;2023-12-28T08:13:06;27.63;;;16.70;;
22648;SDS011;11491;41.942;24.220;2023-12-28T08:15:33;26.55;;;14.10;;
22648;SDS011;11491;41.942;24.220;2023-12-28T08:17:59;37.38;;;21.27;;
22648;SDS011;11491;41.942;24.220;2023-12-28T08:20:26;50.40;;;35.28;;
22648;SDS011;11491;41.942;24.220;2023-12-28T08:22:53;52.85;;;37.45;;
22648;SDS011;11491;41.942;24.220;2023-12-28T08:25:21;78.10;;;51.92;;
22648;SDS011;11491;41.942;24.220;2023-12-28T08:27:48;73.03;;;49.90;;
22648;SDS011;11491;41.942;24.220;2023-12-28T08:30:14;96.05;;;70.20;;
22648;SDS011;11491;41.942;24.220;2023-12-28T08:32:41;82.43;;;59.78;;
22648;SDS011;11491;41.942;24.220;2023-12-28T08:35:08;59.55;;;44.47;;
22648;SDS011;11491;41.942;24.220;2023-12-28T08:37:35;55.50;;;42.22;;
22648;SDS011;11491;41.942;24.220;2023-12-28T08:40:02;50.90;;;37.75;;
22648;SDS011;11491;41.942;24.220;2023-12-28T08:42:31;45.20;;;34.40;;
22648;SDS011;11491;41.942;24.220;2023-12-28T08:44:58;33.10;;;27.33;;
22648;SDS011;11491;41.942;24.220;2023-12-28T08:47:24;54.35;;;41.88;;
22648;SDS011;11491;41.942;24.220;2023-12-28T08:49:51;68.35;;;54.28;;
22648;SDS011;11491;41.942;24.220;2023-12-28T08:52:18;72.68;;;59.50;;
22648;SDS011;11491;41.942;24.220;2023-12-28T08:54:45;74.65;;;62.17;;
22648;SDS011;11491;41.942;24.220;2023-12-28T08:57:11;72.35;;;60.28;;
22648;SDS011;11491;41.942;24.220;2023-12-28T08:59:39;64.75;;;55.95;;
22648;SDS011;11491;41.942;24.220;2023-12-28T09:02:06;78.88;;;66.60;;
22648;SDS011;11491;41.942;24.220;2023-12-28T09:04:33;94.80;;;77.63;;
22648;SDS011;11491;41.942;24.220;2023-12-28T09:07:00;68.55;;;58.45;;
22648;SDS011;11491;41.942;24.220;2023-12-28T09:09:27;79.93;;;65.38;;
22648;SDS011;11491;41.942;24.220;2023-12-28T09:11:54;87.35;;;72.63;;
22648;SDS011;11491;41.942;24.220;2023-12-28T09:14:20;87.90;;;69.63;;
22648;SDS011;11491;41.942;24.220;2023-12-28T09:16:48;74.32;;;60.08;;
22648;SDS011;11491;41.942;24.220;2023-12-28T09:19:15;104.95;;;84.05;;
22648;SDS011;11491;41.942;24.220;2023-12-28T09:21:42;140.63;;;111.68;;
22648;SDS011;11491;41.942;24.220;2023-12-28T09:24:09;172.10;;;136.55;;
22648;SDS011;11491;41.942;24.220;2023-12-28T09:26:35;195.80;;;161.55;;
22648;SDS011;11491;41.942;24.220;2023-12-28T09:29:02;199.38;;;166.73;;
22648;SDS011;11491;41.942;24.220;2023-12-28T09:31:29;128.93;;;114.75;;
22648;SDS011;11491;41.942;24.220;2023-12-28T09:33:57;103.60;;;90.88;;
22648;SDS011;11491;41.942;24.220;2023-12-28T09:36:24;49.05;;;43.80;;
22648;SDS011;11491;41.942;24.220;2023-12-28T09:38:51;32.50;;;29.10;;
22648;SDS011;11491;41.942;24.220;2023-12-28T09:41:18;44.20;;;39.50;;
22648;SDS011;11491;41.942;24.220;2023-12-28T09:43:53;105.05;;;93.15;;
22648;SDS011;11491;41.942;24.220;2023-12-28T09:46:21;61.20;;;54.45;;
22648;SDS011;11491;41.942;24.220;2023-12-28T09:48:47;37.97;;;32.40;;
22648;SDS011;11491;41.942;24.220;2023-12-28T09:51:16;38.35;;;31.20;;
22648;SDS011;11491;41.942;24.220;2023-12-28T09:53:43;32.47;;;28.10;;
22648;SDS011;11491;41.942;24.220;2023-12-28T09:56:10;18.50;;;15.23;;
22648;SDS011;11491;41.942;24.220;2023-12-28T09:58:39;10.60;;;9.10;;
22648;SDS011;11491;41.942;24.220;2023-12-28T10:01:06;11.00;;;9.65;;
22648;SDS011;11491;41.942;24.220;2023-12-28T10:03:35;10.77;;;8.00;;
22648;SDS011;11491;41.942;24.220;2023-12-28T10:06:02;18.65;;;12.00;;
22648;SDS011;11491;41.942;24.220;2023-12-28T10:08:31;13.45;;;7.57;;
22648;SDS011;11491;41.942;24.220;2023-12-28T10:10:57;14.73;;;8.80;;
22648;SDS011;11491;41.942;24.220;2023-12-28T10:13:26;7.55;;;5.95;;
22648;SDS011;11491;41.942;24.220;2023-12-28T10:15:56;7.75;;;5.32;;
22648;SDS011;11491;41.942;24.220;2023-12-28T10:18:23;31.58;;;22.02;;
22648;SDS011;11491;41.942;24.220;2023-12-28T10:20:50;66.82;;;55.70;;
22648;SDS011;11491;41.942;24.220;2023-12-28T10:23:17;104.35;;;65.43;;
22648;SDS011;11491;41.942;24.220;2023-12-28T10:25:46;89.18;;;75.97;;
22648;SDS011;11491;41.942;24.220;2023-12-28T10:28:15;30.75;;;26.65;;
22648;SDS011;11491;41.942;24.220;2023-12-28T10:30:44;30.42;;;22.70;;
22648;SDS011;11491;41.942;24.220;2023-12-28T10:33:10;32.90;;;19.65;;
22648;SDS011;11491;41.942;24.220;2023-12-28T10:35:37;48.10;;;35.53;;
22648;SDS011;11491;41.942;24.220;2023-12-28T10:38:04;35.38;;;20.90;;
22648;SDS011;11491;41.942;24.220;2023-12-28T10:40:35;26.80;;;19.00;;
22648;SDS011;11491;41.942;24.220;2023-12-28T10:43:06;31.67;;;21.52;;
22648;SDS011;11491;41.942;24.220;2023-12-28T10:45:34;24.85;;;14.07;;
22648;SDS011;11491;41.942;24.220;2023-12-28T10:48:04;25.50;;;15.55;;
22648;SDS011;11491;41.942;24.220;2023-12-28T10:50:35;32.78;;;19.65;;
22648;SDS011;11491;41.942;24.220;2023-12-28T10:53:09;17.73;;;10.75;;
22648;SDS011;11491;41.942;24.220;2023-12-28T10:55:48;29.23;;;15.73;;
22648;SDS011;11491;41.942;24.220;2023-12-28T10:58:27;20.65;;;11.82;;
22648;SDS011;11491;41.942;24.220;2023-12-28T11:01:02;10.65;;;6.32;;
22648;SDS011;11491;41.942;24.220;2023-12-28T11:03:36;6.75;;;4.38;;
22648;SDS011;11491;41.942;24.220;2023-12-28T11:06:05;4.70;;;3.13;;
22648;SDS011;11491;41.942;24.220;2023-12-28T11:08:34;3.33;;;2.00;;
22648;SDS011;11491;41.942;24.220;2023-12-28T11:11:04;32.17;;;18.48;;
22648;SDS011;11491;41.942;24.220;2023-12-28T11:13:35;51.17;;;28.88;;
22648;SDS011;11491;41.942;24.220;2023-12-28T11:16:03;7.07;;;5.03;;
22648;SDS011;11491;41.942;24.220;2023-12-28T11:18:31;11.88;;;7.43;;
22648;SDS011;11491;41.942;24.220;2023-12-28T11:20:58;14.27;;;10.75;;
22648;SDS011;11491;41.942;24.220;2023-12-28T11:23:25;6.75;;;6.00;;
22648;SDS011;11491;41.942;24.220;2023-12-28T11:25:52;12.30;;;8.60;;
22648;SDS011;11491;41.942;24.220;2023-12-28T11:28:19;7.97;;;4.75;;
22648;SDS011;11491;41.942;24.220;2023-12-28T11:30:48;10.32;;;7.45;;
22648;SDS011;11491;41.942;24.220;2023-12-28T11:33:15;8.20;;;5.10;;
22648;SDS011;11491;41.942;24.220;2023-12-28T11:35:42;21.17;;;15.50;;
22648;SDS011;11491;41.942;24.220;2023-12-28T11:38:09;16.30;;;11.98;;
22648;SDS011;11491;41.942;24.220;2023-12-28T11:40:41;14.52;;;9.65;;
22648;SDS011;11491;41.942;24.220;2023-12-28T11:43:15;17.15;;;11.50;;
22648;SDS011;11491;41.942;24.220;2023-12-28T11:45:50;14.65;;;9.80;;
22648;SDS011;11491;41.942;24.220;2023-12-28T11:48:24;19.73;;;12.35;;
22648;SDS011;11491;41.942;24.220;2023-12-28T11:50:54;18.02;;;13.82;;
22648;SDS011;11491;41.942;24.220;2023-12-28T11:53:22;28.40;;;19.25;;
22648;SDS011;11491;41.942;24.220;2023-12-28T11:55:49;22.33;;;18.75;;
22648;SDS011;11491;41.942;24.220;2023-12-28T11:58:16;12.48;;;9.82;;
22648;SDS011;11491;41.942;24.220;2023-12-28T12:00:43;7.07;;;5.50;;
22648;SDS011;11491;41.942;24.220;2023-12-28T12:03:11;13.35;;;8.43;;
22648;SDS011;11491;41.942;24.220;2023-12-28T12:05:38;13.65;;;11.50;;
22648;SDS011;11491;41.942;24.220;2023-12-28T12:08:05;19.00;;;15.27;;
22648;SDS011;11491;41.942;24.220;2023-12-28T12:10:35;21.67;;;16.73;;
22648;SDS011;11491;41.942;24.220;2023-12-28T12:13:02;25.23;;;19.50;;
22648;SDS011;11491;41.942;24.220;2023-12-28T12:15:29;13.93;;;10.38;;
22648;SDS011;11491;41.942;24.220;2023-12-28T12:17:56;18.67;;;12.32;;
22648;SDS011;11491;41.942;24.220;2023-12-28T12:20:24;16.73;;;13.60;;
22648;SDS011;11491;41.942;24.220;2023-12-28T12:22:51;17.35;;;13.20;;
22648;SDS011;11491;41.942;24.220;2023-12-28T12:25:18;15.90;;;13.98;;
22648;SDS011;11491;41.942;24.220;2023-12-28T12:27:45;19.48;;;13.50;;
22648;SDS011;11491;41.942;24.220;2023-12-28T12:30:12;17.17;;;13.80;;
22648;SDS011;11491;41.942;24.220;2023-12-28T12:32:39;17.33;;;13.05;;
22648;SDS011;11491;41.942;24.220;2023-12-28T12:35:08;16.75;;;14.48;;
22648;SDS011;11491;41.942;24.220;2023-12-28T12:37:37;17.00;;;13.43;;
22648;SDS011;11491;41.942;24.220;2023-12-28T12:40:04;24.50;;;15.77;;
22648;SDS011;11491;41.942;24.220;2023-12-28T12:42:32;23.17;;;17.58;;
22648;SDS011;11491;41.942;24.220;2023-12-28T12:44:59;21.88;;;16.83;;
22648;SDS011;11491;41.942;24.220;2023-12-28T12:47:31;23.15;;;18.45;;
22648;SDS011;11491;41.942;24.220;2023-12-28T12:49:59;20.50;;;16.23;;
22648;SDS011;11491;41.942;24.220;2023-12-28T12:52:26;21.02;;;17.33;;
22648;SDS011;11491;41.942;24.220;2023-12-28T12:54:55;26.65;;;19.50;;
22648;SDS011;11491;41.942;24.220;2023-12-28T12:57:22;28.48;;;22.73;;
22648;SDS011;11491;41.942;24.220;2023-12-28T12:59:50;73.25;;;54.03;;
22648;SDS011;11491;41.942;24.220;2023-12-28T13:02:17;82.85;;;58.90;;
22648;SDS011;11491;41.942;24.220;2023-12-28T13:04:44;74.50;;;59.70;;
22648;SDS011;11491;41.942;24.220;2023-12-28T13:07:10;80.30;;;60.33;;
22648;SDS011;11491;41.942;24.220;2023-12-28T13:09:37;103.18;;;76.63;;
22648;SDS011;11491;41.942;24.220;2023-12-28T13:12:06;57.28;;;45.88;;
22648;SDS011;11491;41.942;24.220;2023-12-28T13:14:34;66.85;;;60.08;;
22648;SDS011;11491;41.942;24.220;2023-12-28T13:17:00;68.00;;;48.50;;
22648;SDS011;11491;41.942;24.220;2023-12-28T13:19:27;52.47;;;41.13;;
22648;SDS011;11491;41.942;24.220;2023-12-28T13:21:54;54.80;;;43.55;;
22648;SDS011;11491;41.942;24.220;2023-12-28T13:24:21;61.75;;;47.72;;
22648;SDS011;11491;41.942;24.220;2023-12-28T13:26:48;61.35;;;44.25;;
22648;SDS011;11491;41.942;24.220;2023-12-28T13:29:16;51.92;;;37.95;;
22648;SDS011;11491;41.942;24.220;2023-12-28T13:31:43;46.53;;;37.22;;
22648;SDS011;11491;41.942;24.220;2023-12-28T13:34:15;31.73;;;24.35;;
22648;SDS011;11491;41.942;24.220;2023-12-28T13:36:41;39.00;;;31.65;;
22648;SDS011;11491;41.942;24.220;2023-12-28T13:39:08;105.10;;;90.28;;
22648;SDS011;11491;41.942;24.220;2023-12-28T13:41:37;53.25;;;41.33;;
22648;SDS011;11491;41.942;24.220;2023-12-28T13:44:04;60.35;;;42.13;;
22648;SDS011;11491;41.942;24.220;2023-12-28T13:46:36;27.05;;;22.60;;
22648;SDS011;11491;41.942;24.220;2023-12-28T13:49:03;31.73;;;24.08;;
22648;SDS011;11491;41.942;24.220;2023-12-28T13:51:30;32.33;;;25.42;;
22648;SDS011;11491;41.942;24.220;2023-12-28T13:53:56;33.65;;;25.85;;
22648;SDS011;11491;41.942;24.220;2023-12-28T13:56:23;40.55;;;30.05;;
22648;SDS011;11491;41.942;24.220;2023-12-28T13:58:50;40.85;;;32.05;;
22648;SDS011;11491;41.942;24.220;2023-12-28T14:01:17;50.60;;;36.88;;
22648;SDS011;11491;41.942;24.220;2023-12-28T14:03:45;50.47;;;39.22;;
22648;SDS011;11491;41.942;24.220;2023-12-28T14:06:14;54.22;;;37.75;;
22648;SDS011;11491;41.942;24.220;2023-12-28T14:08:40;55.63;;;40.13;;
22648;SDS011;11491;41.942;24.220;2023-12-28T14:11:07;57.42;;;43.15;;
22648;SDS011;11491;41.942;24.220;2023-12-28T14:13:34;58.00;;;42.33;;
22648;SDS011;11491;41.942;24.220;2023-12-28T14:16:02;84.00;;;51.40;;
22648;SDS011;11491;41.942;24.220;2023-12-28T14:18:29;76.63;;;50.17;;
22648;SDS011;11491;41.942;24.220;2023-12-28T14:20:57;110.40;;;72.18;;